createdAt,value
2022-12-31T00:01:34.283Z,7.73
2022-12-31T00:04:02.207Z,7.35
2022-12-31T00:06:35.596Z,7.68
2022-12-31T00:09:08.174Z,7.75
2022-12-31T00:11:37.266Z,7.78
2022-12-31T00:14:06.035Z,6.80
2022-12-31T00:16:37.374Z,7.28
2022-12-31T00:19:08.616Z,8.30
2022-12-31T00:21:37.324Z,8.00
2022-12-31T00:24:07.073Z,7.57
2022-12-31T00:26:35.709Z,7.70
2022-12-31T00:29:04.950Z,7.75
2022-12-31T00:31:35.439Z,8.38
2022-12-31T00:34:04.490Z,7.68
2022-12-31T00:36:40.150Z,7.90
2022-12-31T00:39:09.240Z,7.83
2022-12-31T00:41:37.226Z,7.55
2022-12-31T00:44:05.610Z,7.88
2022-12-31T00:49:01.863Z,7.57
2022-12-31T00:51:31.418Z,7.60
2022-12-31T00:53:59.972Z,7.63
2022-12-31T00:56:30.994Z,7.57
2022-12-31T00:59:01.265Z,7.82
2022-12-31T01:01:37.778Z,8.23
2022-12-31T01:04:12.923Z,8.13
2022-12-31T01:06:42.381Z,8.05
2022-12-31T01:09:11.296Z,8.52
2022-12-31T01:11:39.991Z,8.60
2022-12-31T01:14:16.744Z,9.00
2022-12-31T01:16:50.998Z,8.73
2022-12-31T01:19:29.686Z,8.60
2022-12-31T01:21:57.742Z,7.93
2022-12-31T01:24:26.402Z,8.07
2022-12-31T01:26:58.285Z,8.13
2022-12-31T01:29:27.832Z,8.33
2022-12-31T01:31:56.043Z,8.10
2022-12-31T01:34:27.316Z,8.13
2022-12-31T01:36:55.378Z,8.30
2022-12-31T01:39:23.817Z,7.57
2022-12-31T01:41:51.962Z,7.50
2022-12-31T01:44:25.662Z,7.65
2022-12-31T01:47:01.619Z,7.45
2022-12-31T01:49:37.527Z,7.10
2022-12-31T01:52:21.886Z,7.05
2022-12-31T01:55:05.645Z,7.40
2022-12-31T01:57:34.574Z,6.50
2022-12-31T02:00:07.120Z,6.57
2022-12-31T02:02:35.821Z,7.07
2022-12-31T02:05:12.394Z,6.68
2022-12-31T02:07:41.114Z,6.63
2022-12-31T02:10:09.474Z,6.65
2022-12-31T02:12:37.604Z,6.00
2022-12-31T02:15:06.365Z,6.15
2022-12-31T02:17:54.099Z,6.00
2022-12-31T02:20:50.069Z,6.17
2022-12-31T02:23:55.659Z,5.32
2022-12-31T02:26:57.654Z,4.60
2022-12-31T02:29:49.706Z,4.13
2022-12-31T02:32:42.062Z,4.30
2022-12-31T02:35:22.891Z,4.30
2022-12-31T02:37:57.394Z,4.28
2022-12-31T02:40:26.452Z,4.40
2022-12-31T02:42:55.709Z,3.97
2022-12-31T02:45:29.022Z,4.22
2022-12-31T02:48:11.989Z,4.03
2022-12-31T02:51:04.812Z,4.32
2022-12-31T02:53:59.832Z,4.35
2022-12-31T02:56:36.479Z,4.47
2022-12-31T02:59:33.076Z,4.07
2022-12-31T03:02:16.177Z,4.50
2022-12-31T03:04:49.232Z,4.13
2022-12-31T03:07:32.484Z,4.63
2022-12-31T03:10:01.614Z,4.75
2022-12-31T03:12:48.111Z,4.63
2022-12-31T03:15:21.643Z,4.80
2022-12-31T03:17:55.481Z,4.65
2022-12-31T03:20:49.199Z,4.97
2022-12-31T03:23:21.820Z,4.70
2022-12-31T03:25:50.112Z,4.60
2022-12-31T03:28:21.699Z,4.53
2022-12-31T03:30:53.084Z,4.20
2022-12-31T03:33:22.480Z,3.88
2022-12-31T03:35:51.730Z,4.10
2022-12-31T03:38:20.346Z,3.95
2022-12-31T03:40:53.814Z,3.70
2022-12-31T03:43:22.641Z,3.95
2022-12-31T03:45:52.222Z,3.42
2022-12-31T03:48:22.003Z,3.60
2022-12-31T03:50:51.042Z,3.97
2022-12-31T03:53:19.166Z,3.50
2022-12-31T03:55:52.307Z,3.88
2022-12-31T03:58:22.722Z,3.90
2022-12-31T04:00:51.544Z,3.90
2022-12-31T04:03:19.637Z,3.70
2022-12-31T04:05:56.595Z,3.50
2022-12-31T04:08:25.281Z,3.75
2022-12-31T04:10:53.334Z,3.67
2022-12-31T04:13:21.779Z,3.60
2022-12-31T04:15:52.856Z,3.88
2022-12-31T04:18:20.952Z,3.93
2022-12-31T04:20:51.336Z,3.15
2022-12-31T04:23:19.480Z,3.90
2022-12-31T04:25:47.520Z,3.58
2022-12-31T04:28:15.645Z,3.58
2022-12-31T04:30:44.363Z,3.50
2022-12-31T04:33:12.830Z,3.42
2022-12-31T04:35:40.833Z,3.72
2022-12-31T04:38:09.079Z,3.55
2022-12-31T04:40:57.533Z,3.63
2022-12-31T04:43:25.941Z,3.70
2022-12-31T04:45:54.415Z,3.63
2022-12-31T04:48:23.271Z,3.90
2022-12-31T04:50:54.423Z,3.90
2022-12-31T04:53:23.717Z,3.90
2022-12-31T04:55:52.407Z,4.20
2022-12-31T04:58:22.375Z,4.63
2022-12-31T05:00:53.147Z,4.97
2022-12-31T05:03:22.522Z,4.78
2022-12-31T05:05:50.708Z,4.53
2022-12-31T05:08:19.476Z,4.70
2022-12-31T05:10:50.204Z,5.13
2022-12-31T05:13:18.487Z,4.78
2022-12-31T05:15:48.035Z,5.00
2022-12-31T05:18:16.668Z,5.30
2022-12-31T05:20:45.143Z,5.60
2022-12-31T05:23:13.977Z,5.85
2022-12-31T05:25:44.494Z,5.63
2022-12-31T05:28:12.997Z,5.65
2022-12-31T05:30:41.494Z,5.60
2022-12-31T05:33:10.122Z,6.20
2022-12-31T05:35:38.144Z,6.53
2022-12-31T05:38:06.626Z,5.63
2022-12-31T05:40:34.730Z,5.72
2022-12-31T05:43:03.527Z,6.28
2022-12-31T05:45:31.825Z,5.97
2022-12-31T05:48:00.042Z,6.00
2022-12-31T05:50:28.085Z,5.55
2022-12-31T05:52:57.420Z,5.78
2022-12-31T05:55:25.844Z,5.40
2022-12-31T05:57:54.970Z,5.83
2022-12-31T06:00:23.436Z,5.85
2022-12-31T06:02:51.828Z,5.40
2022-12-31T06:05:25.864Z,5.20
2022-12-31T06:07:56.585Z,5.28
2022-12-31T06:10:24.767Z,4.53
2022-12-31T06:12:52.898Z,4.15
2022-12-31T06:15:21.260Z,4.97
2022-12-31T06:17:49.933Z,5.20
2022-12-31T06:20:18.079Z,5.28
2022-12-31T06:22:46.359Z,5.00
2022-12-31T06:25:14.609Z,5.38
2022-12-31T06:27:42.700Z,5.93
2022-12-31T06:30:12.077Z,11.60
2022-12-31T06:32:41.117Z,21.48
2022-12-31T06:35:09.628Z,30.17
2022-12-31T06:37:37.710Z,32.10
2022-12-31T06:40:06.609Z,28.13
2022-12-31T06:42:34.721Z,25.02
2022-12-31T06:45:02.855Z,24.70
2022-12-31T06:47:30.939Z,25.57
2022-12-31T06:49:58.849Z,27.17
2022-12-31T06:52:27.377Z,27.73
2022-12-31T06:54:57.298Z,28.80
2022-12-31T06:57:25.945Z,32.65
2022-12-31T06:59:54.653Z,36.43
2022-12-31T07:02:27.558Z,41.08
2022-12-31T07:05:10.771Z,44.00
2022-12-31T07:07:53.379Z,49.08
2022-12-31T07:10:33.286Z,42.95
2022-12-31T07:13:13.405Z,39.07
2022-12-31T07:15:53.070Z,34.08
2022-12-31T07:18:24.685Z,27.55
2022-12-31T07:20:53.031Z,24.45
2022-12-31T07:26:20.981Z,27.47
2022-12-31T07:29:14.393Z,29.58
2022-12-31T07:32:05.018Z,44.78
2022-12-31T07:35:02.486Z,40.60
2022-12-31T07:37:48.400Z,39.25
2022-12-31T07:40:48.015Z,37.63
2022-12-31T07:43:33.298Z,36.08
2022-12-31T07:46:20.064Z,38.40
2022-12-31T07:48:48.347Z,39.42
2022-12-31T07:51:17.064Z,29.55
2022-12-31T07:53:45.469Z,27.83
2022-12-31T07:56:14.103Z,29.02
2022-12-31T07:59:18.403Z,25.80
2022-12-31T08:02:00.662Z,15.50
2022-12-31T08:04:40.645Z,11.05
2022-12-31T08:07:08.532Z,10.40
2022-12-31T08:10:15.644Z,7.82
2022-12-31T08:12:48.736Z,7.80
2022-12-31T08:15:24.127Z,6.65
2022-12-31T08:17:55.114Z,6.40
2022-12-31T08:20:23.215Z,6.20
2022-12-31T08:23:10.220Z,6.45
2022-12-31T08:25:49.950Z,5.38
2022-12-31T08:29:14.823Z,5.32
2022-12-31T08:32:09.563Z,5.03
2022-12-31T08:34:46.471Z,4.53
2022-12-31T08:37:22.595Z,5.20
2022-12-31T08:40:16.635Z,4.60
2022-12-31T08:43:04.826Z,4.30
2022-12-31T08:45:51.571Z,4.97
2022-12-31T08:48:31.644Z,4.40
2022-12-31T08:50:59.882Z,4.50
2022-12-31T08:53:28.093Z,4.40
2022-12-31T08:56:10.411Z,4.50
2022-12-31T08:58:53.306Z,3.97
2022-12-31T09:01:28.232Z,4.50
2022-12-31T09:04:13.377Z,4.45
2022-12-31T09:07:00.493Z,4.20
2022-12-31T09:09:54.453Z,4.38
2022-12-31T09:12:33.212Z,5.40
2022-12-31T09:15:34.349Z,6.37
2022-12-31T09:18:02.668Z,5.78
2022-12-31T09:20:43.309Z,5.43
2022-12-31T09:23:13.955Z,5.15
2022-12-31T09:26:11.763Z,4.80
2022-12-31T09:29:01.274Z,4.23
2022-12-31T09:31:39.169Z,5.72
2022-12-31T09:34:20.452Z,4.60
2022-12-31T09:36:57.547Z,4.30
2022-12-31T09:39:45.414Z,4.68
2022-12-31T09:42:33.425Z,5.90
2022-12-31T09:45:39.732Z,4.20
2022-12-31T09:48:31.089Z,4.40
2022-12-31T09:51:05.082Z,5.35
2022-12-31T09:54:08.279Z,4.68
2022-12-31T09:56:48.467Z,4.30
2022-12-31T09:59:52.055Z,4.25
2022-12-31T10:02:41.989Z,4.35
2022-12-31T10:05:31.363Z,4.88
2022-12-31T10:08:18.279Z,5.00
2022-12-31T10:11:05.896Z,5.53
2022-12-31T10:14:07.411Z,6.10
2022-12-31T10:17:09.616Z,6.07
2022-12-31T10:20:13.055Z,6.03
2022-12-31T10:22:59.042Z,5.80
2022-12-31T10:25:55.346Z,5.73
2022-12-31T10:28:47.198Z,5.70
2022-12-31T10:31:29.705Z,6.00
2022-12-31T10:33:58.355Z,6.75
2022-12-31T10:36:33.238Z,7.25
2022-12-31T10:39:28.731Z,8.20
2022-12-31T10:42:11.817Z,7.70
2022-12-31T10:44:58.371Z,7.80
2022-12-31T10:48:06.201Z,7.60
2022-12-31T10:51:04.367Z,7.22
2022-12-31T10:54:00.693Z,6.90
2022-12-31T10:57:13.814Z,7.50
2022-12-31T11:00:19.197Z,7.30
2022-12-31T11:03:14.715Z,8.30
2022-12-31T11:05:57.780Z,7.63
2022-12-31T11:08:43.441Z,7.93
2022-12-31T11:11:35.730Z,8.45
2022-12-31T11:14:16.639Z,7.25
2022-12-31T11:17:05.884Z,7.32
2022-12-31T11:20:02.352Z,7.88
2022-12-31T11:22:55.349Z,7.70
2022-12-31T11:25:48.759Z,7.50
2022-12-31T11:28:24.372Z,6.93
2022-12-31T11:31:22.978Z,6.38
2022-12-31T11:34:11.227Z,6.22
2022-12-31T11:37:02.162Z,6.20
2022-12-31T11:39:43.320Z,5.57
2022-12-31T11:42:21.383Z,4.95
2022-12-31T11:45:16.089Z,6.05
2022-12-31T11:48:30.317Z,5.75
2022-12-31T11:51:23.807Z,5.00
2022-12-31T11:54:34.827Z,5.07
2022-12-31T11:57:42.646Z,5.72
2022-12-31T12:00:20.898Z,4.35
2022-12-31T12:02:49.791Z,4.43
2022-12-31T12:05:23.709Z,4.33
2022-12-31T12:07:53.161Z,4.38
2022-12-31T12:10:31.991Z,4.28
2022-12-31T12:13:30.301Z,10.77
2022-12-31T12:16:01.578Z,4.72
2022-12-31T12:18:31.461Z,6.30
2022-12-31T12:21:23.078Z,4.55
2022-12-31T12:24:05.289Z,3.58
2022-12-31T12:26:44.938Z,4.05
2022-12-31T12:29:19.833Z,3.92
2022-12-31T12:31:59.867Z,3.80
2022-12-31T12:34:35.896Z,3.70
2022-12-31T12:37:05.489Z,3.22
2022-12-31T12:39:35.228Z,3.28
2022-12-31T12:42:11.268Z,3.08
2022-12-31T12:44:40.626Z,3.40
2022-12-31T12:47:14.712Z,3.10
2022-12-31T12:49:46.903Z,2.70
2022-12-31T12:52:42.697Z,2.70
2022-12-31T12:55:28.004Z,3.10
2022-12-31T12:58:19.622Z,2.70
2022-12-31T13:01:26.442Z,2.70
2022-12-31T13:04:35.191Z,3.13
2022-12-31T13:07:04.033Z,7.10
2022-12-31T13:10:01.080Z,3.03
2022-12-31T13:13:13.788Z,6.13
2022-12-31T13:15:47.097Z,4.70
2022-12-31T13:18:41.082Z,4.90
2022-12-31T13:21:21.139Z,4.00
2022-12-31T13:24:04.075Z,2.67
2022-12-31T13:26:49.306Z,3.60
2022-12-31T13:29:24.528Z,3.35
2022-12-31T13:31:55.387Z,3.92
2022-12-31T13:34:29.276Z,4.22
2022-12-31T13:37:04.210Z,4.13
2022-12-31T13:39:37.998Z,3.70
2022-12-31T13:42:19.116Z,3.92
2022-12-31T13:44:54.561Z,3.58
2022-12-31T13:47:42.616Z,4.25
2022-12-31T13:50:43.506Z,3.75
2022-12-31T13:53:35.483Z,4.37
2022-12-31T13:56:12.146Z,3.90
2022-12-31T13:58:53.771Z,4.60
2022-12-31T14:01:29.396Z,4.15
2022-12-31T14:04:12.881Z,3.85
2022-12-31T14:07:02.226Z,3.90
2022-12-31T14:09:33.855Z,3.60
2022-12-31T14:12:27.013Z,3.88
2022-12-31T14:15:19.473Z,3.75
2022-12-31T14:18:34.827Z,3.60
2022-12-31T14:21:33.612Z,3.50
2022-12-31T14:24:15.015Z,3.95
2022-12-31T14:26:51.229Z,3.80
2022-12-31T14:29:36.079Z,3.33
2022-12-31T14:32:39.660Z,3.78
2022-12-31T14:35:22.370Z,3.80
2022-12-31T14:38:10.956Z,3.80
2022-12-31T14:41:02.095Z,3.50
2022-12-31T14:43:42.279Z,4.07
2022-12-31T14:46:40.623Z,4.70
2022-12-31T14:49:20.608Z,3.90
2022-12-31T14:51:49.384Z,4.70
2022-12-31T14:54:38.242Z,4.78
2022-12-31T14:58:09.568Z,4.80
2022-12-31T15:00:33.807Z,5.28
2022-12-31T15:03:26.096Z,5.00
2022-12-31T15:06:14.459Z,5.07
2022-12-31T15:09:09.533Z,5.20
2022-12-31T15:11:40.644Z,5.22
2022-12-31T15:14:38.219Z,5.70
2022-12-31T15:17:20.929Z,5.40
2022-12-31T15:20:11.401Z,6.05
2022-12-31T15:22:45.404Z,5.88
2022-12-31T15:25:40.056Z,5.90
2022-12-31T15:28:24.478Z,6.65
2022-12-31T15:30:56.968Z,6.30
2022-12-31T15:33:31.148Z,6.32
2022-12-31T15:36:14.116Z,6.90
2022-12-31T15:38:43.356Z,7.20
2022-12-31T15:41:16.912Z,12.63
2022-12-31T15:43:53.249Z,14.00
2022-12-31T15:46:28.880Z,16.15
2022-12-31T15:49:23.546Z,17.75
2022-12-31T15:52:02.146Z,19.35
2022-12-31T15:54:43.063Z,24.05
2022-12-31T15:57:33.955Z,25.90
2022-12-31T16:00:06.990Z,23.02
2022-12-31T16:02:36.423Z,18.92
2022-12-31T16:05:04.546Z,12.25
2022-12-31T16:07:33.575Z,12.43
2022-12-31T16:10:04.893Z,13.87
2022-12-31T16:12:44.389Z,13.93
2022-12-31T16:15:33.413Z,11.68
2022-12-31T16:18:22.506Z,10.27
2022-12-31T16:20:52.334Z,10.25
2022-12-31T16:23:26.583Z,11.03
2022-12-31T16:25:58.820Z,11.88
2022-12-31T16:28:32.488Z,11.45
2022-12-31T16:31:07.083Z,10.40
2022-12-31T16:33:35.479Z,11.65
2022-12-31T16:36:03.557Z,11.47
2022-12-31T16:38:36.931Z,10.98
2022-12-31T16:41:16.109Z,11.60
2022-12-31T16:43:45.427Z,12.15
2022-12-31T16:46:31.012Z,11.60
2022-12-31T16:49:17.757Z,11.20
2022-12-31T16:51:46.001Z,11.43
2022-12-31T16:54:33.297Z,10.18
2022-12-31T16:57:02.491Z,11.95
2022-12-31T16:59:36.206Z,10.90
2022-12-31T17:02:10.456Z,11.47
2022-12-31T17:04:45.907Z,10.43
2022-12-31T17:07:41.119Z,11.07
2022-12-31T17:10:09.320Z,10.30
2022-12-31T17:13:25.421Z,11.07
2022-12-31T17:15:43.275Z,11.80
2022-12-31T17:18:20.560Z,11.50
2022-12-31T17:20:51.710Z,12.50
2022-12-31T17:23:29.001Z,12.07
2022-12-31T17:26:15.461Z,12.60
2022-12-31T17:28:49.533Z,13.20
2022-12-31T17:31:41.442Z,14.52
2022-12-31T17:34:15.382Z,14.70
2022-12-31T17:36:52.485Z,15.18
2022-12-31T17:39:24.529Z,15.93
2022-12-31T17:41:56.732Z,14.80
2022-12-31T17:44:31.413Z,16.88
2022-12-31T17:46:59.754Z,16.08
2022-12-31T17:49:31.941Z,15.32
2022-12-31T17:52:00.158Z,14.05
2022-12-31T17:54:28.243Z,13.03
2022-12-31T17:56:56.757Z,12.35
2022-12-31T17:59:29.931Z,13.75
2022-12-31T18:02:03.877Z,14.00
2022-12-31T18:04:32.489Z,13.10
2022-12-31T18:07:00.550Z,12.43
2022-12-31T18:09:28.755Z,13.10
2022-12-31T18:12:01.511Z,13.00
2022-12-31T18:14:30.221Z,12.65
2022-12-31T18:16:58.340Z,12.75
2022-12-31T18:22:16.805Z,13.55
2022-12-31T18:24:45.435Z,14.18
2022-12-31T18:27:20.105Z,13.25
2022-12-31T18:29:48.432Z,13.60
2022-12-31T18:32:28.556Z,17.43
2022-12-31T18:34:56.664Z,14.65
2022-12-31T18:37:24.826Z,14.95
2022-12-31T18:39:53.066Z,15.10
2022-12-31T18:42:23.375Z,15.18
2022-12-31T18:44:51.488Z,14.77
2022-12-31T18:47:23.607Z,15.15
2022-12-31T18:49:52.105Z,14.45
2022-12-31T18:52:23.080Z,13.95
2022-12-31T18:54:51.553Z,14.15
2022-12-31T18:57:20.639Z,15.13
2022-12-31T18:59:49.106Z,14.93
2022-12-31T19:02:20.277Z,16.95
2022-12-31T19:04:49.126Z,16.40
2022-12-31T19:07:16.953Z,17.80
2022-12-31T19:09:53.034Z,18.40
2022-12-31T19:12:23.710Z,18.17
2022-12-31T19:14:51.653Z,18.92
2022-12-31T19:17:20.984Z,18.02
2022-12-31T19:19:48.879Z,18.58
2022-12-31T19:22:16.930Z,16.90
2022-12-31T19:24:45.544Z,16.88
2022-12-31T19:27:14.497Z,16.20
2022-12-31T19:29:43.689Z,16.95
2022-12-31T19:32:11.879Z,16.55
2022-12-31T19:34:40.002Z,16.25
2022-12-31T19:37:09.645Z,15.43
2022-12-31T19:39:37.764Z,16.17
2022-12-31T19:42:06.037Z,14.88
2022-12-31T19:44:36.970Z,14.38
2022-12-31T19:47:05.195Z,14.40
2022-12-31T19:49:33.502Z,13.67
2022-12-31T19:52:01.517Z,12.75
2022-12-31T19:54:29.577Z,12.70
2022-12-31T19:56:58.182Z,12.77
2022-12-31T19:59:27.118Z,13.25
2022-12-31T20:01:55.286Z,13.10
2022-12-31T20:04:23.220Z,13.00
2022-12-31T20:06:51.167Z,11.07
2022-12-31T20:09:19.109Z,10.52
2022-12-31T20:11:47.504Z,12.35
2022-12-31T20:14:15.548Z,13.23
2022-12-31T20:16:43.702Z,11.80
2022-12-31T20:19:11.868Z,61.22
2022-12-31T20:21:42.303Z,116.88
2022-12-31T20:24:10.470Z,29.35
2022-12-31T20:26:38.464Z,14.67
2022-12-31T20:29:06.611Z,14.27
2022-12-31T20:31:34.714Z,12.60
2022-12-31T20:34:03.042Z,14.25
2022-12-31T20:36:30.981Z,12.10
2022-12-31T20:38:59.357Z,10.37
2022-12-31T20:41:27.878Z,10.07
2022-12-31T20:43:56.098Z,10.80
2022-12-31T20:46:26.299Z,10.10
2022-12-31T20:48:57.689Z,10.35
2022-12-31T20:51:27.013Z,10.33
2022-12-31T20:54:01.265Z,10.18
2022-12-31T20:56:31.420Z,10.23
2022-12-31T20:59:00.823Z,9.90
2022-12-31T21:01:41.795Z,9.40
2022-12-31T21:04:17.789Z,10.43
2022-12-31T21:06:48.227Z,11.18
2022-12-31T21:09:16.942Z,11.95
2022-12-31T21:12:03.534Z,12.25
2022-12-31T21:14:31.839Z,16.38
2022-12-31T21:16:59.842Z,22.63
2022-12-31T21:19:28.074Z,23.15
2022-12-31T21:21:56.050Z,19.38
2022-12-31T21:24:24.436Z,17.13
2022-12-31T21:26:55.548Z,16.50
2022-12-31T21:29:23.963Z,16.07
2022-12-31T21:31:51.872Z,16.67
2022-12-31T21:34:20.251Z,17.80
2022-12-31T21:36:48.236Z,17.27
2022-12-31T21:39:16.628Z,22.38
2022-12-31T21:41:53.582Z,45.33
2022-12-31T21:44:24.155Z,48.92
2022-12-31T21:47:39.799Z,46.20
2022-12-31T21:50:09.952Z,33.83
2022-12-31T21:52:37.902Z,29.58
2022-12-31T21:55:25.816Z,24.77
2022-12-31T22:01:01.702Z,17.63
2022-12-31T22:03:30.238Z,15.52
2022-12-31T22:06:12.871Z,16.52
2022-12-31T22:08:43.279Z,17.03
2022-12-31T22:11:13.412Z,16.55
2022-12-31T22:13:45.526Z,14.93
2022-12-31T22:16:14.714Z,13.77
2022-12-31T22:18:44.754Z,12.82
2022-12-31T22:21:20.862Z,12.07
2022-12-31T22:23:51.239Z,11.25
2022-12-31T22:26:22.801Z,11.60
2022-12-31T22:28:51.837Z,11.38
2022-12-31T22:31:27.712Z,11.68
2022-12-31T22:33:56.289Z,11.87
2022-12-31T22:36:24.990Z,13.05
2022-12-31T22:38:58.659Z,13.43
2022-12-31T22:41:27.957Z,13.80
2022-12-31T22:44:05.837Z,14.48
2022-12-31T22:46:36.053Z,14.00
2022-12-31T22:49:05.518Z,14.68
2022-12-31T22:51:57.332Z,13.05
2022-12-31T22:54:22.422Z,13.07
2022-12-31T22:56:50.793Z,13.40
2022-12-31T22:59:19.146Z,14.27
2022-12-31T23:01:47.318Z,14.57
2022-12-31T23:04:15.996Z,14.25
2022-12-31T23:06:44.090Z,17.35
2022-12-31T23:09:32.367Z,37.88
2022-12-31T23:12:01.749Z,68.00
2022-12-31T23:14:48.411Z,57.08
2022-12-31T23:17:38.059Z,55.25
2022-12-31T23:20:30.941Z,77.40
2022-12-31T23:23:11.431Z,69.32
2022-12-31T23:25:45.999Z,60.53
2022-12-31T23:28:17.793Z,65.22
2022-12-31T23:30:46.192Z,67.55
2022-12-31T23:33:20.148Z,68.47
2022-12-31T23:35:48.502Z,75.80
2022-12-31T23:38:18.323Z,81.33
2022-12-31T23:40:46.881Z,87.20
2022-12-31T23:43:21.649Z,91.60
2022-12-31T23:45:53.293Z,95.68
2022-12-31T23:48:22.049Z,102.63
2022-12-31T23:50:53.952Z,108.43
2022-12-31T23:53:23.856Z,111.35
2022-12-31T23:55:53.326Z,112.70
2022-12-31T23:58:22.995Z,106.20
